»·PEaware :: WAT295 KONT-KSBA

WAT295 :: KONT-KSBA

FLIGHT INFORMATION

Flight Status: Arrived
Operator: Unknown
More flights by this operator :: More flights under this callsign
Pilot: Corentin D. (28157)
Aircraft: MOONEY M-20K/M ENCORE BRAVO
(M20T)
More flights by this aircraft type
Origin: KONT Ontario Intl
United States
Destination: KSBA Santa Barbara Mun
United States
More flights between these airports :: More routes between these airports
Route: PDZ V186 DEANO V27 KWANG
File this flight plan on PilotEdge
Remarks: TEC route ONTP16
Altitude:
(Current/Filed)
6,000ft
Speed:
(Current/Filed)
170kts
Departed: 30-Jul-20 04:51 PM
Arrived: 30-Jul-20 05:34 PM
Distance/Time
Traveled:
113nm/0:43
Distance/Time
To Go:
Arrived

Flight Plot

Page will automatically refresh every two minutes.


Map Options




Map Legend


Flown Route
Filed Route
Departure Airport
Arrival Airport
Navaid (VOR, NDB)
Fix

Horizontal Profiles

Position Reports

Time Latitude Longitude Heading Altitude Ground
Speed
30-Jul-20 16:32 34.052992 -117.604180 269 918ft 0kts
30-Jul-20 16:33 34.052992 -117.604180 269 918ft 0kts
30-Jul-20 16:34 34.052992 -117.604180 269 918ft 0kts
30-Jul-20 16:35 34.052992 -117.604180 269 918ft 0kts
30-Jul-20 16:36 34.052992 -117.604180 269 918ft 0kts
30-Jul-20 16:37 34.052992 -117.604180 269 918ft 0kts
30-Jul-20 16:38 34.052992 -117.604180 269 918ft 0kts
30-Jul-20 16:39 34.052993 -117.604218 273 918ft 0kts
30-Jul-20 16:40 34.052996 -117.604248 278 918ft 1kts
30-Jul-20 16:41 34.053126 -117.603805 18 919ft 0kts
30-Jul-20 16:42 34.053184 -117.603760 32 920ft 0kts
30-Jul-20 16:43 34.053184 -117.603760 32 920ft 0kts
30-Jul-20 16:44 34.053870 -117.600569 88 920ft 16kts
30-Jul-20 16:45 34.053858 -117.593772 88 918ft 14kts
30-Jul-20 16:46 34.053858 -117.587573 89 918ft 19kts
30-Jul-20 16:47 34.053954 -117.582630 49 923ft 0kts
30-Jul-20 16:48 34.053954 -117.582630 49 923ft 0kts
30-Jul-20 16:49 34.054536 -117.582519 347 925ft 17kts
30-Jul-20 16:50 34.054864 -117.597412 267 1391ft 91kts
30-Jul-20 16:51 34.055761 -117.626928 270 3275ft 89kts
30-Jul-20 16:52 34.058141 -117.656830 270 5090ft 93kts
30-Jul-20 16:53 34.061606 -117.693846 272 6023ft 152kts
30-Jul-20 16:54 34.065758 -117.750519 272 6027ft 179kts
30-Jul-20 16:55 34.070099 -117.811224 272 6036ft 184kts
30-Jul-20 16:56 34.074561 -117.872527 272 6038ft 185kts
30-Jul-20 16:57 34.079209 -117.932573 272 6027ft 186kts
30-Jul-20 16:58 34.084268 -117.993761 272 6015ft 187kts
30-Jul-20 16:59 34.092269 -118.054714 282 6005ft 191kts
30-Jul-20 17:00 34.109601 -118.114968 286 5998ft 194kts
30-Jul-20 17:01 34.127803 -118.174467 286 6000ft 195kts
30-Jul-20 17:02 34.146673 -118.235336 286 6021ft 197kts
30-Jul-20 17:03 34.164756 -118.293806 286 6023ft 198kts
30-Jul-20 17:04 34.183700 -118.355958 286 6025ft 200kts
30-Jul-20 17:05 34.202985 -118.419347 286 6025ft 201kts
30-Jul-20 17:06 34.222243 -118.483074 286 6022ft 202kts
30-Jul-20 17:07 34.243234 -118.546120 290 6018ft 206kts
30-Jul-20 17:09 34.265408 -118.609780 289 6024ft 205kts
30-Jul-20 17:10 34.285686 -118.673033 289 6037ft 200kts
30-Jul-20 17:11 34.307799 -118.734031 288 6048ft 195kts
30-Jul-20 17:12 34.328460 -118.793897 288 6060ft 189kts
30-Jul-20 17:13 34.347913 -118.852824 288 6063ft 186kts
30-Jul-20 17:14 34.355670 -118.913029 264 6044ft 181kts
30-Jul-20 17:15 34.350493 -118.973320 264 6045ft 180kts
30-Jul-20 17:16 34.346816 -119.034054 263 6044ft 179kts
30-Jul-20 17:17 34.342493 -119.094160 263 6045ft 178kts
30-Jul-20 17:18 34.336683 -119.153822 261 6049ft 177kts
30-Jul-20 17:19 34.332838 -119.213648 264 6050ft 176kts
30-Jul-20 17:20 34.328552 -119.272794 263 6052ft 175kts
30-Jul-20 17:21 34.323960 -119.331946 263 6050ft 175kts
30-Jul-20 17:22 34.319398 -119.393374 264 5146ft 188kts
30-Jul-20 17:23 34.314795 -119.454420 264 4136ft 177kts
30-Jul-20 17:24 34.321426 -119.507421 283 3997ft 148kts
30-Jul-20 17:24 34.330821 -119.546897 283 3995ft 147kts
30-Jul-20 17:26 34.344462 -119.603722 283 3161ft 155kts
30-Jul-20 17:27 34.357388 -119.645193 302 2993ft 130kts
30-Jul-20 17:27 34.380583 -119.675155 310 2711ft 159kts
30-Jul-20 17:28 34.411624 -119.713581 308 2022ft 149kts
30-Jul-20 17:30 34.429564 -119.755189 265 1362ft 98kts
30-Jul-20 17:30 34.428911 -119.783134 264 928ft 97kts
30-Jul-20 17:31 34.428326 -119.811514 262 435ft 72kts
30-Jul-20 17:32 34.427919 -119.835660 264 30ft 61kts
30-Jul-20 17:33 34.428592 -119.841989 341 15ft 0kts
30-Jul-20 17:34 34.428592 -119.841989 341 15ft 0kts
30-Jul-20 17:35 34.430096 -119.841565 62 15ft 12kts
30-Jul-20 17:36 34.431415 -119.839113 338 15ft 7kts

Navigation Log

Ident Type
Flight plan parsing failed, navigation log unavailable